Time;durP1;ratioP1;P1;durP2;ratioP2;P2;SDS_P1;SDS_P2;PMS_P1;PMS_P2;Temp;Humidity;BMP_temperature;BMP_pressure;BME280_temperature;BME280_humidity;BME280_pressure;Samples;Min_cycle;Max_cycle;Signal;HPM_P1;HPM_P2
2023/09/03 00:00:24;;;;;;;15.45;8.52;;;16.90;99.90;;;;;;4993683;28;20022;-50
2023/09/03 00:02:50;;;;;;;20.20;9.30;;;17.00;99.90;;;;;;4993788;28;20447;-49
2023/09/03 00:05:16;;;;;;;18.02;9.95;;;17.00;99.90;;;;;;4992369;28;20035;-46
2023/09/03 00:07:41;;;;;;;21.70;10.18;;;17.00;99.90;;;;;;4993582;28;20785;-45
2023/09/03 00:10:07;;;;;;;18.88;9.25;;;17.10;99.90;;;;;;4993567;28;20022;-51
2023/09/03 00:12:33;;;;;;;19.58;9.30;;;17.00;99.90;;;;;;4993686;28;20019;-53
2023/09/03 00:14:58;;;;;;;16.35;9.27;;;17.00;99.90;;;;;;4993098;28;20032;-50
2023/09/03 00:17:24;;;;;;;19.83;8.77;;;17.10;99.90;;;;;;4993434;28;20030;-52
2023/09/03 00:19:50;;;;;;;18.38;9.07;;;17.00;99.90;;;;;;4993587;28;20534;-47
2023/09/03 00:22:15;;;;;;;18.25;9.73;;;17.00;99.90;;;;;;4993338;28;20023;-46
2023/09/03 00:24:41;;;;;;;20.15;9.07;;;17.00;99.90;;;;;;4993286;28;20042;-48
2023/09/03 00:27:06;;;;;;;19.63;8.95;;;17.00;99.90;;;;;;4993506;28;20065;-47
2023/09/03 00:29:32;;;;;;;18.17;8.35;;;16.90;99.90;;;;;;4993290;28;20022;-49
2023/09/03 00:31:58;;;;;;;18.20;9.18;;;16.90;99.90;;;;;;4993359;28;20084;-51
2023/09/03 00:34:23;;;;;;;15.02;8.25;;;16.90;99.90;;;;;;4993096;28;20022;-45
2023/09/03 00:36:49;;;;;;;16.88;8.63;;;16.90;99.90;;;;;;4993178;28;20105;-48
2023/09/03 00:39:14;;;;;;;17.90;9.70;;;16.90;99.90;;;;;;4992953;28;20376;-49
2023/09/03 00:41:40;;;;;;;17.85;8.95;;;16.90;99.90;;;;;;4993181;28;20038;-48
2023/09/03 00:44:06;;;;;;;16.80;7.75;;;16.80;99.90;;;;;;4992979;28;20029;-48
2023/09/03 00:46:31;;;;;;;16.20;8.73;;;16.80;99.90;;;;;;4993002;28;20105;-49
2023/09/03 00:48:58;;;;;;;16.77;8.10;;;16.80;99.90;;;;;;4992981;28;20049;-48
2023/09/03 00:51:24;;;;;;;16.45;8.15;;;16.80;99.90;;;;;;4992723;28;20109;-49
2023/09/03 00:53:54;;;;;;;16.77;8.27;;;16.80;99.90;;;;;;4992944;28;20045;-51
2023/09/03 00:56:21;;;;;;;17.48;8.45;;;16.80;99.90;;;;;;4992682;28;20034;-54
2023/09/03 00:58:47;;;;;;;16.60;8.23;;;16.70;99.90;;;;;;4992807;28;20029;-47
2023/09/03 01:01:13;;;;;;;16.20;7.80;;;16.70;99.90;;;;;;4992782;28;20027;-45
2023/09/03 01:03:39;;;;;;;17.55;8.68;;;16.70;99.90;;;;;;4992556;28;20050;-49
2023/09/03 01:06:06;;;;;;;18.35;8.25;;;16.70;99.90;;;;;;4992565;28;20082;-52
2023/09/03 01:08:32;;;;;;;17.08;8.85;;;16.70;99.90;;;;;;4992482;28;20113;-46
2023/09/03 01:11:28;;;;;;;16.92;7.93;;;16.70;99.90;;;;;;4992689;28;20110;-45
2023/09/03 01:14:12;;;;;;;15.25;8.02;;;16.60;99.90;;;;;;4992503;28;20080;-51
2023/09/03 01:16:54;;;;;;;14.77;7.85;;;16.60;99.90;;;;;;4992464;28;20030;-48
2023/09/03 01:19:34;;;;;;;15.40;7.30;;;16.60;99.90;;;;;;4992524;28;20595;-51
2023/09/03 01:22:16;;;;;;;17.05;7.72;;;16.50;99.90;;;;;;4992252;28;20045;-47
2023/09/03 01:25:16;;;;;;;15.38;8.02;;;16.50;99.90;;;;;;4992366;28;20033;-51
2023/09/03 01:28:13;;;;;;;13.13;7.75;;;16.50;99.90;;;;;;4991707;28;20030;-46
2023/09/03 01:30:39;;;;;;;17.50;8.70;;;16.50;99.90;;;;;;4992038;28;20057;-48
2023/09/03 01:33:05;;;;;;;14.85;8.20;;;16.50;99.90;;;;;;4991980;28;20023;-54
2023/09/03 01:35:32;;;;;;;16.60;8.15;;;16.50;99.90;;;;;;4991870;28;20096;-52
2023/09/03 01:37:59;;;;;;;14.52;8.13;;;16.50;99.90;;;;;;4992239;28;20035;-50
2023/09/03 01:40:24;;;;;;;14.23;7.53;;;16.50;99.90;;;;;;4991014;28;20077;-57
2023/09/03 01:42:50;;;;;;;17.02;8.32;;;16.50;99.90;;;;;;4991938;28;20026;-45
2023/09/03 01:45:16;;;;;;;13.10;8.10;;;16.40;99.90;;;;;;4992037;28;20026;-51
2023/09/03 01:47:50;;;;;;;16.77;8.40;;;16.50;99.90;;;;;;4991792;28;20023;-50
2023/09/03 01:50:35;;;;;;;16.38;6.85;;;16.50;99.90;;;;;;4991535;28;20435;-50
2023/09/03 01:53:19;;;;;;;15.68;7.97;;;16.50;99.90;;;;;;4991618;28;20062;-53
2023/09/03 01:55:53;;;;;;;16.00;7.20;;;16.40;99.90;;;;;;4991715;28;20034;-49
2023/09/03 01:58:20;;;;;;;17.55;8.27;;;16.40;99.90;;;;;;4991512;28;20045;-50
2023/09/03 02:00:46;;;;;;;17.38;8.38;;;16.40;99.90;;;;;;4991582;28;20034;-50
2023/09/03 02:03:13;;;;;;;15.77;8.77;;;16.30;99.90;;;;;;4991542;28;20019;-54
2023/09/03 02:05:39;;;;;;;18.02;8.63;;;16.30;99.90;;;;;;4991516;28;20030;-52
2023/09/03 02:08:05;;;;;;;15.48;8.48;;;16.30;99.90;;;;;;4991170;28;20050;-46
2023/09/03 02:10:30;;;;;;;18.08;7.90;;;16.20;99.90;;;;;;4991338;28;20022;-46
2023/09/03 02:12:56;;;;;;;17.92;8.70;;;16.20;99.90;;;;;;4989442;28;20039;-48
2023/09/03 02:15:21;;;;;;;15.90;7.63;;;16.20;99.90;;;;;;4991099;28;20399;-45
2023/09/03 02:17:47;;;;;;;16.52;8.27;;;16.10;99.90;;;;;;4991293;28;20026;-48
2023/09/03 02:20:13;;;;;;;16.05;8.05;;;16.10;99.90;;;;;;4991279;28;20109;-51
2023/09/03 02:22:38;;;;;;;14.02;7.75;;;16.10;99.90;;;;;;4991278;28;20030;-49
2023/09/03 02:25:04;;;;;;;15.50;7.60;;;16.00;99.90;;;;;;4991708;28;20410;-51
2023/09/03 02:27:30;;;;;;;15.13;7.55;;;16.00;99.90;;;;;;4991266;28;20022;-53
2023/09/03 02:29:55;;;;;;;18.40;7.38;;;16.00;99.90;;;;;;4990848;28;20395;-55
2023/09/03 02:32:21;;;;;;;15.20;7.63;;;15.90;99.90;;;;;;4991204;28;20476;-47
2023/09/03 02:34:47;;;;;;;13.13;6.97;;;15.90;99.90;;;;;;4991023;28;20124;-54
2023/09/03 02:37:12;;;;;;;15.73;8.27;;;15.90;99.90;;;;;;4991013;28;20030;-59
2023/09/03 02:39:38;;;;;;;15.45;8.20;;;15.80;99.90;;;;;;4989833;28;20394;-52
2023/09/03 02:42:04;;;;;;;21.70;8.50;;;15.80;99.90;;;;;;4991098;28;20776;-49
2023/09/03 02:44:29;;;;;;;20.65;9.00;;;15.80;99.90;;;;;;4991076;28;20033;-48
2023/09/03 02:46:55;;;;;;;15.35;7.97;;;15.80;99.90;;;;;;4990875;28;20196;-54
2023/09/03 02:49:22;;;;;;;16.17;9.15;;;15.80;99.90;;;;;;4991001;28;20019;-51
2023/09/03 02:51:47;;;;;;;13.57;7.38;;;15.80;99.90;;;;;;4990755;28;20417;-47
2023/09/03 02:54:13;;;;;;;17.13;7.65;;;15.80;99.90;;;;;;4990365;28;20018;-45
2023/09/03 02:56:38;;;;;;;16.25;8.30;;;15.70;99.90;;;;;;4990833;28;20030;-49
2023/09/03 02:59:04;;;;;;;15.63;7.82;;;15.70;99.90;;;;;;4989389;28;20178;-52
2023/09/03 03:01:30;;;;;;;17.80;8.57;;;15.70;99.90;;;;;;4990429;28;20077;-50
2023/09/03 03:03:56;;;;;;;16.58;7.93;;;15.70;99.90;;;;;;4990960;28;20426;-48
2023/09/03 03:06:21;;;;;;;15.23;7.55;;;15.70;99.90;;;;;;4991028;28;20046;-47
2023/09/03 03:08:47;;;;;;;13.68;7.00;;;15.60;99.90;;;;;;4991175;28;20031;-46
2023/09/03 03:11:16;;;;;;;14.10;7.28;;;15.60;99.90;;;;;;4990774;28;20022;-45
2023/09/03 03:13:42;;;;;;;;;;;15.70;99.90;;;;;;4991070;28;20117;-45
2023/09/03 03:16:10;;;;;;;15.63;7.72;;;15.70;99.90;;;;;;4990493;28;19972;-47
2023/09/03 03:18:38;;;;;;;16.70;8.35;;;15.70;99.90;;;;;;4990574;28;20018;-47
2023/09/03 03:21:16;;;;;;;19.67;9.02;;;15.70;99.90;;;;;;4990356;28;20031;-45
2023/09/03 03:23:43;;;;;;;16.88;8.32;;;15.60;99.90;;;;;;4990516;28;20041;-47
2023/09/03 03:26:09;;;;;;;17.08;7.35;;;15.60;99.90;;;;;;4990241;28;20034;-45
2023/09/03 03:28:35;;;;;;;16.00;7.85;;;15.40;99.90;;;;;;4990458;28;20030;-47
2023/09/03 03:31:17;;;;;;;18.15;8.45;;;15.50;99.90;;;;;;4990313;28;20030;-52
2023/09/03 03:33:43;;;;;;;16.58;7.65;;;15.50;99.90;;;;;;4990460;28;20030;-50
2023/09/03 03:36:19;;;;;;;15.77;7.78;;;15.50;99.90;;;;;;4990219;28;20045;-54
2023/09/03 03:38:45;;;;;;;14.98;7.45;;;15.40;99.90;;;;;;4990327;28;20407;-48
2023/09/03 03:41:13;;;;;;;15.57;7.65;;;15.40;99.90;;;;;;4990251;28;20037;-51
2023/09/03 03:43:44;;;;;;;16.17;7.90;;;15.40;99.90;;;;;;4990138;28;20125;-46
2023/09/03 03:46:13;;;;;;;18.13;7.93;;;15.40;99.90;;;;;;4990063;28;20530;-50
2023/09/03 03:48:38;;;;;;;15.35;7.93;;;15.40;99.90;;;;;;4990198;28;20104;-47
2023/09/03 03:51:04;;;;;;;13.77;7.13;;;15.30;99.90;;;;;;4993688;28;20038;-45
2023/09/03 03:53:30;;;;;;;16.27;6.93;;;15.30;99.90;;;;;;4993819;28;20014;-52
2023/09/03 03:56:03;;;;;;;13.15;6.95;;;15.30;99.90;;;;;;4993758;28;20581;-50
2023/09/03 03:58:30;;;;;;;14.27;7.07;;;15.20;99.90;;;;;;4993737;28;20053;-47
2023/09/03 04:00:56;;;;;;;15.30;7.65;;;15.20;99.90;;;;;;4993636;28;20065;-49
2023/09/03 04:03:23;;;;;;;15.63;8.18;;;15.20;99.90;;;;;;4993486;28;20034;-47
2023/09/03 04:06:01;;;;;;;16.23;7.70;;;15.10;99.90;;;;;;4993219;28;20424;-54
2023/09/03 04:08:33;;;;;;;14.65;7.82;;;15.10;99.90;;;;;;4993455;28;20059;-52
2023/09/03 04:11:00;;;;;;;15.85;8.05;;;15.20;99.90;;;;;;4993412;28;20030;-55
2023/09/03 04:13:27;;;;;;;15.63;7.75;;;15.20;99.90;;;;;;4993440;28;20040;-48
2023/09/03 04:15:53;;;;;;;13.90;7.70;;;15.20;99.90;;;;;;4993122;28;20053;-52
2023/09/03 04:18:19;;;;;;;16.75;7.43;;;15.20;99.90;;;;;;4993166;28;20038;-51
2023/09/03 04:20:45;;;;;;;18.10;8.57;;;15.20;99.90;;;;;;4993164;28;20105;-45
2023/09/03 04:23:10;;;;;;;18.05;8.60;;;15.20;99.90;;;;;;4979811;28;20026;-45
2023/09/03 04:25:37;;;;;;;17.58;8.57;;;15.20;99.90;;;;;;4993245;28;20026;-45
2023/09/03 04:28:03;;;;;;;15.73;8.10;;;15.20;99.90;;;;;;4992967;28;20479;-53
2023/09/03 04:30:28;;;;;;;20.00;8.13;;;15.20;99.90;;;;;;4993082;28;20108;-48
2023/09/03 04:32:54;;;;;;;18.85;7.97;;;15.20;99.90;;;;;;4992998;28;20080;-46
2023/09/03 04:35:19;;;;;;;15.50;7.32;;;15.20;99.90;;;;;;4993062;28;20026;-55
2023/09/03 04:37:45;;;;;;;18.65;7.95;;;15.10;99.90;;;;;;4993017;28;20440;-46
2023/09/03 04:40:11;;;;;;;13.25;7.15;;;15.10;99.90;;;;;;4979431;28;20120;-51
2023/09/03 04:42:38;;;;;;;13.13;6.90;;;15.20;99.90;;;;;;4992996;28;20085;-49
2023/09/03 04:45:04;;;;;;;14.20;6.93;;;15.10;99.90;;;;;;4992819;28;20031;-54
2023/09/03 04:47:30;;;;;;;17.73;8.13;;;15.20;99.90;;;;;;4993050;28;20031;-50
2023/09/03 04:49:55;;;;;;;14.93;7.90;;;15.10;99.90;;;;;;4992748;28;20061;-45
2023/09/03 04:52:21;;;;;;;13.50;6.68;;;15.10;99.90;;;;;;4992833;28;20050;-56
2023/09/03 04:54:46;;;;;;;13.20;6.75;;;14.90;99.90;;;;;;4992600;28;20072;-48
2023/09/03 04:57:12;;;;;;;15.52;7.18;;;14.90;99.90;;;;;;4992701;28;20499;-52
2023/09/03 04:59:38;;;;;;;14.32;7.45;;;14.90;99.90;;;;;;4992828;28;20037;-51
2023/09/03 05:02:03;;;;;;;16.77;7.43;;;14.80;99.90;;;;;;4992425;28;20484;-46
2023/09/03 05:04:29;;;;;;;16.00;7.57;;;14.80;99.90;;;;;;4992546;28;20101;-48
2023/09/03 05:06:56;;;;;;;16.75;7.78;;;14.80;99.90;;;;;;4992167;28;20053;-50
2023/09/03 05:09:22;;;;;;;14.88;7.60;;;14.80;99.90;;;;;;4992367;28;20026;-50
2023/09/03 05:11:47;;;;;;;17.75;8.13;;;14.90;99.90;;;;;;4992258;28;20077;-46
2023/09/03 05:14:13;;;;;;;17.52;7.82;;;14.90;99.90;;;;;;4991127;28;20371;-49
2023/09/03 05:16:38;;;;;;;16.73;7.72;;;14.90;99.90;;;;;;4992222;28;20372;-45
2023/09/03 05:19:04;;;;;;;14.82;8.10;;;14.90;99.90;;;;;;4992510;28;20034;-50
2023/09/03 05:21:32;;;;;;;14.18;7.47;;;14.90;99.90;;;;;;4992339;28;20045;-52
2023/09/03 05:23:58;;;;;;;12.95;7.47;;;14.90;99.90;;;;;;4992301;28;20022;-52
2023/09/03 05:26:23;;;;;;;12.90;6.50;;;14.80;99.90;;;;;;4992091;28;20033;-52
2023/09/03 05:28:49;;;;;;;9.68;5.95;;;14.70;99.90;;;;;;4992094;28;20436;-48
2023/09/03 05:31:15;;;;;;;11.63;5.95;;;14.70;99.90;;;;;;4991924;28;20058;-48
2023/09/03 05:33:41;;;;;;;11.07;6.93;;;14.70;99.90;;;;;;4992431;28;20420;-50
2023/09/03 05:36:06;;;;;;;17.90;7.75;;;14.70;99.90;;;;;;4991845;28;20550;-52
2023/09/03 05:38:32;;;;;;;19.50;9.02;;;14.80;99.90;;;;;;4991959;28;20093;-51
2023/09/03 05:40:59;;;;;;;16.20;8.30;;;14.80;99.90;;;;;;4992117;28;20041;-44
2023/09/03 05:43:25;;;;;;;14.23;7.57;;;14.90;99.90;;;;;;4991862;28;20049;-44
2023/09/03 05:45:51;;;;;;;13.05;6.78;;;14.90;99.90;;;;;;4991915;28;20027;-51
2023/09/03 05:48:17;;;;;;;13.90;6.95;;;14.90;99.90;;;;;;4991770;28;20450;-52
2023/09/03 05:50:42;;;;;;;12.25;6.47;;;15.00;99.90;;;;;;4991917;28;20061;-53
2023/09/03 05:53:08;;;;;;;16.63;7.35;;;15.00;99.90;;;;;;4991723;28;20062;-52
2023/09/03 05:55:37;;;;;;;13.85;6.82;;;15.00;99.90;;;;;;4991725;28;20023;-47
2023/09/03 05:58:03;;;;;;;13.23;6.85;;;15.10;99.90;;;;;;4991759;28;20069;-47
2023/09/03 06:00:29;;;;;;;13.75;6.63;;;15.10;99.90;;;;;;4991532;28;20023;-53
2023/09/03 06:02:55;;;;;;;10.98;6.25;;;15.20;99.90;;;;;;4991728;28;20031;-54
2023/09/03 06:05:21;;;;;;;14.90;7.18;;;15.20;99.90;;;;;;4991413;28;20494;-46
2023/09/03 06:07:47;;;;;;;12.32;6.50;;;15.20;99.90;;;;;;4991524;28;20042;-53
2023/09/03 06:10:13;;;;;;;14.65;6.68;;;15.20;99.90;;;;;;4991331;28;20189;-53
2023/09/03 06:12:39;;;;;;;13.38;7.40;;;15.10;99.90;;;;;;4990764;28;20403;-48
2023/09/03 06:15:05;;;;;;;14.38;6.70;;;15.10;99.90;;;;;;4991265;28;20046;-48
2023/09/03 06:17:31;;;;;;;11.68;6.45;;;15.00;99.90;;;;;;4991040;28;20364;-48
2023/09/03 06:19:56;;;;;;;14.35;6.68;;;15.00;99.90;;;;;;4991265;28;20085;-52
2023/09/03 06:22:22;;;;;;;14.55;7.45;;;15.10;99.90;;;;;;4973829;28;20037;-47
2023/09/03 06:24:48;;;;;;;11.90;6.70;;;15.00;99.90;;;;;;4990836;28;20029;-54
2023/09/03 06:27:13;;;;;;;13.65;7.05;;;15.00;99.90;;;;;;4991275;28;20127;-50
2023/09/03 06:29:39;;;;;;;11.93;6.30;;;15.10;99.90;;;;;;4991031;28;20084;-47
2023/09/03 06:32:05;;;;;;;14.07;6.95;;;15.20;99.90;;;;;;4991017;28;20060;-56
2023/09/03 06:34:31;;;;;;;13.00;6.53;;;15.40;99.90;;;;;;4990998;28;20022;-52
2023/09/03 06:36:57;;;;;;;14.07;6.50;;;15.60;99.90;;;;;;4991024;28;20038;-56
2023/09/03 06:39:25;;;;;;;14.15;7.40;;;16.00;99.90;;;;;;4990988;28;20030;-51
2023/09/03 06:41:51;;;;;;;13.20;6.95;;;16.20;99.90;;;;;;4973769;28;20061;-49
2023/09/03 06:44:16;;;;;;;12.65;6.43;;;16.40;99.90;;;;;;4991105;28;20062;-54
2023/09/03 06:46:42;;;;;;;10.50;5.82;;;16.30;99.90;;;;;;4991038;28;20022;-50
2023/09/03 06:49:07;;;;;;;15.05;7.10;;;16.30;99.90;;;;;;4991207;28;20019;-52
2023/09/03 06:51:33;;;;;;;10.75;6.53;;;16.40;99.90;;;;;;4990816;28;20027;-45
2023/09/03 06:53:59;;;;;;;14.77;7.15;;;16.60;99.90;;;;;;4990825;28;20399;-49
2023/09/03 06:56:24;;;;;;;12.80;7.82;;;16.90;99.90;;;;;;4990726;28;20065;-48
2023/09/03 06:58:50;;;;;;;13.82;7.13;;;17.30;99.90;;;;;;4989315;28;20057;-51
2023/09/03 07:01:17;;;;;;;13.23;7.43;;;17.70;99.90;;;;;;4990979;28;20023;-47
2023/09/03 07:03:43;;;;;;;12.80;6.45;;;18.00;99.90;;;;;;4990824;28;20022;-52
2023/09/03 07:06:08;;;;;;;14.10;6.47;;;18.30;99.90;;;;;;4990558;28;20037;-45
2023/09/03 07:08:34;;;;;;;12.65;6.53;;;18.40;99.90;;;;;;4990684;28;20085;-57
2023/09/03 07:11:00;;;;;;;12.48;6.60;;;18.60;99.90;;;;;;4990624;28;20022;-50
2023/09/03 07:13:25;;;;;;;10.02;6.07;;;18.90;99.90;;;;;;4989437;28;20113;-50
2023/09/03 07:15:51;;;;;;;10.98;5.28;;;19.40;99.90;;;;;;4990440;28;20068;-53
2023/09/03 07:18:17;;;;;;;10.00;5.97;;;19.80;99.90;;;;;;4990510;28;20022;-46
2023/09/03 07:20:42;;;;;;;13.35;5.95;;;20.40;99.90;;;;;;4990565;28;20022;-52
2023/09/03 07:23:08;;;;;;;9.45;5.70;;;20.90;99.90;;;;;;4990545;28;20026;-50
2023/09/03 07:25:35;;;;;;;10.02;5.97;;;21.30;99.90;;;;;;4993813;28;20026;-49
2023/09/03 07:28:01;;;;;;;8.95;5.47;;;21.60;99.90;;;;;;4994488;28;20018;-48
2023/09/03 07:30:28;;;;;;;9.77;5.45;;;21.90;99.90;;;;;;4993305;28;20030;-52
2023/09/03 07:32:53;;;;;;;8.95;5.55;;;22.30;99.90;;;;;;4994284;28;20027;-50
2023/09/03 07:35:19;;;;;;;9.18;4.93;;;22.70;99.90;;;;;;4994546;28;20113;-51
2023/09/03 07:37:45;;;;;;;9.18;5.35;;;23.00;99.90;;;;;;4994291;28;20041;-48
2023/09/03 07:40:11;;;;;;;8.30;4.90;;;23.30;99.90;;;;;;4994126;28;20050;-48
2023/09/03 07:42:36;;;;;;;5.95;3.95;;;23.60;99.90;;;;;;4994353;28;20435;-53
2023/09/03 07:45:02;;;;;;;5.28;3.50;;;24.10;99.90;;;;;;4994195;28;20062;-56
2023/09/03 07:47:28;;;;;;;6.43;3.83;;;24.40;99.90;;;;;;4993757;28;20034;-45
2023/09/03 07:49:54;;;;;;;7.45;3.95;;;24.50;99.90;;;;;;4994164;28;20126;-52
2023/09/03 07:52:20;;;;;;;5.63;3.70;;;24.80;99.90;;;;;;4993965;28;20420;-49
2023/09/03 07:54:45;;;;;;;5.63;3.58;;;25.10;99.90;;;;;;4993973;28;20062;-47
2023/09/03 07:57:12;;;;;;;5.00;3.05;;;25.30;99.90;;;;;;4980312;28;20046;-49
2023/09/03 07:59:38;;;;;;;5.53;3.33;;;25.60;99.90;;;;;;4993887;28;20391;-46
2023/09/03 08:02:04;;;;;;;4.32;2.85;;;25.90;99.90;;;;;;4993925;28;20161;-48
2023/09/03 08:04:30;;;;;;;8.07;3.75;;;26.00;99.90;;;;;;4993718;28;20125;-45
2023/09/03 08:06:56;;;;;;;4.60;2.70;;;25.90;99.90;;;;;;4993587;28;20054;-53
2023/09/03 08:09:24;;;;;;;5.63;3.00;;;26.00;99.90;;;;;;4993664;28;20026;-54
2023/09/03 08:11:51;;;;;;;4.63;2.80;;;26.10;99.90;;;;;;4993588;28;20018;-45
2023/09/03 08:14:16;;;;;;;5.15;2.85;;;26.10;99.90;;;;;;4993820;28;20041;-47
2023/09/03 08:16:42;;;;;;;7.32;3.03;;;26.20;99.90;;;;;;4993670;28;20034;-49
2023/09/03 08:19:07;;;;;;;5.50;2.95;;;26.40;99.90;;;;;;4993716;28;20399;-50
2023/09/03 08:21:33;;;;;;;6.05;3.03;;;26.20;99.90;;;;;;4993390;28;20372;-46
2023/09/03 08:23:59;;;;;;;5.32;2.80;;;26.30;99.90;;;;;;4993433;28;20157;-47
2023/09/03 08:26:24;;;;;;;7.43;3.35;;;26.50;99.90;;;;;;4993008;28;20022;-47
2023/09/03 08:28:50;;;;;;;5.97;3.38;;;26.60;99.90;;;;;;4993476;28;20018;-49
2023/09/03 08:31:15;;;;;;;10.20;3.05;;;26.70;99.90;;;;;;4992856;28;20387;-44
2023/09/03 08:33:41;;;;;;;8.05;2.95;;;26.90;99.90;;;;;;4993087;28;20379;-46
2023/09/03 08:36:07;;;;;;;6.40;3.60;;;26.50;99.90;;;;;;4991335;28;20070;-51
2023/09/03 08:38:33;;;;;;;7.60;3.30;;;26.50;99.90;;;;;;4992859;28;20626;-47
2023/09/03 08:40:58;;;;;;;8.02;3.60;;;26.40;99.90;;;;;;4993221;28;20037;-49
2023/09/03 08:43:29;;;;;;;6.70;3.33;;;26.30;99.90;;;;;;4992842;28;20034;-52
2023/09/03 08:46:09;;;;;;;6.20;3.78;;;26.50;99.90;;;;;;4993240;28;20025;-49
2023/09/03 08:48:35;;;;;;;6.75;3.53;;;26.60;99.90;;;;;;4992812;28;20018;-46
2023/09/03 08:51:01;;;;;;;6.25;3.50;;;26.70;99.90;;;;;;4992942;28;20026;-48
2023/09/03 08:53:28;;;;;;;6.47;3.83;;;26.90;99.90;;;;;;4992473;28;20510;-47
2023/09/03 08:55:54;;;;;;;7.72;3.90;;;27.00;99.90;;;;;;4993033;28;20042;-49
2023/09/03 08:58:20;;;;;;;7.70;4.20;;;27.00;99.90;;;;;;4992659;28;20034;-47
2023/09/03 09:00:45;;;;;;;8.15;4.28;;;27.20;99.90;;;;;;4992918;28;20014;-47
2023/09/03 09:03:14;;;;;;;8.35;4.22;;;27.10;99.90;;;;;;4992727;28;20030;-49
2023/09/03 09:05:47;;;;;;;7.05;4.20;;;27.30;99.90;;;;;;4992502;28;20026;-52
2023/09/03 09:08:14;;;;;;;7.88;4.57;;;27.50;99.90;;;;;;4992796;28;20038;-50
2023/09/03 09:10:43;;;;;;;7.38;3.80;;;27.90;99.90;;;;;;4992454;28;20026;-54
2023/09/03 09:13:11;;;;;;;7.75;4.03;;;28.10;99.90;;;;;;4992259;28;20045;-56
2023/09/03 09:15:42;;;;;;;7.68;4.15;;;28.00;99.90;;;;;;4992287;28;20031;-55
2023/09/03 09:18:09;;;;;;;7.00;3.78;;;28.30;99.90;;;;;;4992368;28;20038;-54
2023/09/03 09:20:38;;;;;;;7.38;4.80;;;28.50;99.90;;;;;;4991971;28;20029;-48
2023/09/03 09:23:04;;;;;;;;;;;28.30;99.90;;;;;;4992726;28;20503;-50
2023/09/03 09:25:29;;;;;;;6.43;3.72;;;28.50;99.90;;;;;;4992337;28;19917;-47
2023/09/03 09:27:57;;;;;;;5.82;3.67;;;28.70;99.90;;;;;;4992162;28;20030;-52
2023/09/03 09:30:25;;;;;;;5.97;3.92;;;29.10;99.90;;;;;;4992445;28;20161;-52
2023/09/03 09:33:07;;;;;;;5.53;3.60;;;29.10;99.90;;;;;;4992089;28;20049;-49
2023/09/03 09:35:34;;;;;;;5.03;3.28;;;29.50;99.90;;;;;;4992192;28;20498;-47
2023/09/03 09:38:06;;;;;;;6.10;3.80;;;30.00;99.90;;;;;;4992110;28;20030;-52
2023/09/03 09:40:34;;;;;;;8.32;4.55;;;30.20;99.90;;;;;;4992358;28;20041;-55
2023/09/03 09:43:03;;;;;;;6.07;3.80;;;30.50;99.90;;;;;;4991473;28;20112;-51
2023/09/03 09:45:44;;;;;;;5.60;3.65;;;30.20;99.90;;;;;;4992068;28;20054;-50
2023/09/03 09:48:10;;;;;;;5.32;3.15;;;29.60;99.90;;;;;;4991145;28;20041;-54
2023/09/03 09:50:37;;;;;;;4.85;3.22;;;29.40;99.90;;;;;;4991964;28;20049;-51
2023/09/03 09:53:04;;;;;;;5.72;3.58;;;29.40;99.90;;;;;;4991578;28;20065;-47
2023/09/03 09:55:32;;;;;;;7.03;4.15;;;29.70;99.90;;;;;;4969210;28;20450;-50
2023/09/03 09:57:58;;;;;;;5.35;3.55;;;29.70;99.90;;;;;;4991220;28;20030;-48
2023/09/03 10:00:35;;;;;;;7.22;4.13;;;29.70;99.90;;;;;;4991688;28;20030;-54
2023/09/03 10:03:01;;;;;;;6.47;4.28;;;29.70;99.90;;;;;;4991641;28;20023;-49
2023/09/03 10:05:26;;;;;;;8.15;4.60;;;29.40;99.90;;;;;;4991523;28;20030;-49
2023/09/03 10:07:53;;;;;;;5.45;3.53;;;29.70;99.90;;;;;;4991567;28;20503;-49
2023/09/03 10:10:20;;;;;;;7.47;3.58;;;30.00;99.90;;;;;;4991198;28;20030;-50
2023/09/03 10:12:45;;;;;;;7.00;4.10;;;29.90;99.90;;;;;;4991481;28;20030;-45
2023/09/03 10:15:14;;;;;;;7.70;4.38;;;29.80;99.90;;;;;;4991404;28;20122;-45
2023/09/03 10:17:41;;;;;;;8.05;4.40;;;29.50;99.90;;;;;;4990966;28;20121;-50
2023/09/03 10:20:14;;;;;;;6.20;4.30;;;29.40;99.90;;;;;;4989365;28;20042;-46
2023/09/03 10:22:41;;;;;;;6.40;3.97;;;29.50;99.90;;;;;;4989224;28;20057;-47
2023/09/03 10:25:10;;;;;;;6.32;3.28;;;29.60;99.90;;;;;;4989707;28;20057;-47
2023/09/03 10:27:41;;;;;;;6.57;3.67;;;30.00;99.90;;;;;;4989272;28;20031;-48
2023/09/03 10:30:09;;;;;;;7.05;4.50;;;29.80;99.90;;;;;;4989625;28;20053;-45
2023/09/03 10:32:36;;;;;;;4.95;3.38;;;29.90;99.90;;;;;;4989291;28;20116;-45
2023/09/03 10:35:09;;;;;;;5.80;3.70;;;30.20;99.90;;;;;;4990957;28;20088;-44
2023/09/03 10:37:36;;;;;;;6.95;4.55;;;30.50;99.90;;;;;;4991095;28;20046;-45
2023/09/03 10:40:33;;;;;;;6.28;3.88;;;30.50;99.90;;;;;;4991137;28;20022;-45
2023/09/03 10:43:21;;;;;;;6.88;3.92;;;30.70;99.90;;;;;;4982763;28;20045;-46
2023/09/03 10:46:07;;;;;;;6.68;4.43;;;30.50;99.90;;;;;;4990244;28;20029;-49
2023/09/03 10:48:34;;;;;;;6.32;4.00;;;30.40;99.90;;;;;;4990217;28;20029;-49
2023/09/03 10:51:00;;;;;;;7.93;4.63;;;30.50;99.90;;;;;;4990976;28;20030;-46
2023/09/03 10:53:43;;;;;;;6.93;4.70;;;30.70;99.90;;;;;;4990706;28;20388;-49
2023/09/03 10:56:14;;;;;;;5.50;3.80;;;30.30;99.90;;;;;;4990937;28;20080;-54
2023/09/03 10:59:00;;;;;;;5.90;3.90;;;30.30;99.90;;;;;;4993990;28;20122;-48
2023/09/03 11:01:30;;;;;;;7.45;4.65;;;30.50;99.90;;;;;;4997504;28;20030;-49
2023/09/03 11:03:56;;;;;;;7.25;5.03;;;30.60;99.90;;;;;;4997237;28;20023;-52
2023/09/03 11:06:23;;;;;;;7.40;4.97;;;30.20;99.90;;;;;;4997254;28;20141;-52
2023/09/03 11:09:10;;;;;;;6.43;4.32;;;30.40;99.90;;;;;;4997309;28;20033;-53
2023/09/03 11:11:38;;;;;;;5.30;3.60;;;30.50;99.90;;;;;;4980606;28;20030;-54
2023/09/03 11:14:06;;;;;;;5.05;3.45;;;30.20;99.90;;;;;;4997217;28;20030;-46
2023/09/03 11:16:36;;;;;;;6.55;4.50;;;30.00;99.90;;;;;;4997255;28;20050;-50
2023/09/03 11:19:04;;;;;;;6.97;4.85;;;29.90;99.90;;;;;;4997214;28;20026;-50
2023/09/03 11:21:30;;;;;;;7.55;4.95;;;29.60;99.90;;;;;;4997222;28;20022;-55
2023/09/03 11:24:14;;;;;;;5.97;4.43;;;29.80;99.90;;;;;;4997458;28;20530;-48
2023/09/03 11:26:40;;;;;;;7.88;4.90;;;29.80;99.90;;;;;;4984480;28;20026;-54
2023/09/03 11:29:22;;;;;;;7.78;4.72;;;29.50;99.90;;;;;;4997503;28;20049;-54
2023/09/03 11:31:49;;;;;;;6.25;4.40;;;29.60;99.90;;;;;;4984691;28;20041;-49
2023/09/03 11:34:18;;;;;;;7.30;4.70;;;29.00;99.90;;;;;;4997403;28;20032;-57
2023/09/03 11:36:47;;;;;;;9.00;5.53;;;28.70;99.90;;;;;;4996683;28;20037;-49
2023/09/03 11:39:17;;;;;;;9.52;5.53;;;28.90;99.90;;;;;;4997164;28;20031;-54
2023/09/03 11:41:46;;;;;;;12.63;5.55;;;29.00;99.90;;;;;;4996484;28;20042;-48
2023/09/03 11:44:23;;;;;;;7.78;5.15;;;28.50;99.90;;;;;;4997246;28;20113;-52
2023/09/03 11:46:57;;;;;;;7.35;4.97;;;28.70;99.90;;;;;;4979271;28;20423;-49
2023/09/03 11:49:22;;;;;;;6.43;4.07;;;28.70;99.90;;;;;;4996080;28;20022;-50
2023/09/03 11:51:48;;;;;;;8.48;4.65;;;28.80;99.90;;;;;;4995302;28;20026;-53
2023/09/03 11:54:26;;;;;;;6.90;3.95;;;28.70;99.90;;;;;;4996592;28;20026;-49
2023/09/03 11:56:56;;;;;;;6.22;3.97;;;28.60;99.90;;;;;;4994687;28;20058;-50
2023/09/03 11:59:22;;;;;;;5.90;3.42;;;28.00;99.90;;;;;;4994955;28;20026;-45
2023/09/03 12:01:48;;;;;;;4.63;3.08;;;27.80;99.90;;;;;;4995279;28;20041;-49
2023/09/03 12:04:14;;;;;;;6.03;3.00;;;27.80;99.90;;;;;;4995075;28;20014;-51
2023/09/03 12:06:40;;;;;;;5.30;3.90;;;28.20;99.90;;;;;;4994729;28;20057;-48
2023/09/03 12:09:06;;;;;;;5.63;3.83;;;28.50;99.90;;;;;;4994670;28;20109;-50
2023/09/03 12:11:32;;;;;;;5.50;3.45;;;28.50;99.90;;;;;;4991311;28;20097;-47
2023/09/03 12:13:57;;;;;;;7.80;3.72;;;28.50;99.90;;;;;;4991851;28;20027;-49
2023/09/03 12:16:24;;;;;;;5.40;3.13;;;28.50;99.90;;;;;;4991881;28;20311;-48
2023/09/03 12:18:56;;;;;;;4.57;2.90;;;28.60;99.90;;;;;;4991696;28;20034;-45
2023/09/03 12:21:36;;;;;;;5.72;3.00;;;28.60;99.90;;;;;;4980753;28;20014;-51
2023/09/03 12:24:05;;;;;;;3.42;2.30;;;28.80;99.90;;;;;;4992797;28;20041;-54
2023/09/03 12:26:32;;;;;;;3.75;2.35;;;28.70;99.90;;;;;;4993396;28;20442;-50
2023/09/03 12:29:00;;;;;;;4.28;2.78;;;28.70;99.90;;;;;;4993613;28;20038;-45
2023/09/03 12:31:44;;;;;;;4.30;2.90;;;28.70;99.90;;;;;;4993439;28;20086;-46
2023/09/03 12:34:10;;;;;;;4.43;3.10;;;28.40;99.90;;;;;;4993449;28;20091;-50
2023/09/03 12:36:58;;;;;;;3.95;2.83;;;28.00;99.90;;;;;;4993487;28;20038;-52
2023/09/03 12:39:34;;;;;;;4.88;2.80;;;27.90;99.90;;;;;;4993565;28;20037;-48
2023/09/03 12:42:01;;;;;;;4.28;2.72;;;28.00;99.90;;;;;;4993367;28;20093;-52
2023/09/03 12:44:28;;;;;;;4.63;2.78;;;27.80;99.90;;;;;;4992736;28;20034;-51